WetterOnline ( https://www.wetteronline.de )

Wetter aktuell Öhringen

Aktuelles Wetter: Öhringen (277m)

6-stündlich | Neueste Meldungen
Ortszeit Temperatur Wetter
Do, 29.09. 2:00 6.9° C wolkenlos
Mi, 28.09. 20:00 9.5° C wolkig
Mi, 28.09. 14:00 11.9° C bewölkt
Mi, 28.09. 8:00 8.8° C bedeckt
Mi, 28.09. 2:00 8.6° C Sprühregen
Di, 27.09. 20:00 9.0° C bewölkt
Di, 27.09. 14:00 9.6° C bedeckt
Di, 27.09. 8:00 9.0° C bedeckt
Ortszeit Temperatur Wetter
Do, 29.09. 7:00 6.0° C bedeckt
Do, 29.09. 6:50 6.0° C bedeckt
Do, 29.09. 6:40 6.0° C bedeckt
Do, 29.09. 6:30 6.2° C bewölkt
Do, 29.09. 6:20 6.2° C bewölkt
Do, 29.09. 6:10 6.4° C bewölkt
Do, 29.09. 6:00 6.5° C bedeckt
Do, 29.09. 5:30 6.3° C bedeckt
Do, 29.09. 5:00 6.1° C bedeckt
Do, 29.09. 4:30 6.3° C bewölkt
Do, 29.09. 4:00 6.3° C bewölkt
Ortszeit Relative Feuchte Sichtweite
Do, 29.09. 2:00 91% 35 km
Mi, 28.09. 20:00 85% 45 km
Mi, 28.09. 14:00 69% 55 km
Mi, 28.09. 8:00 93% 40 km
Mi, 28.09. 2:00 81% >70 km
Di, 27.09. 20:00 82% 55 km
Di, 27.09. 14:00 87% 45 km
Di, 27.09. 8:00 92% 35 km
Ortszeit Relative Feuchte Sichtweite
Do, 29.09. 7:00 93% 29 km
Do, 29.09. 6:50 93% -
Do, 29.09. 6:40 94% -
Do, 29.09. 6:30 93% 25 km
Do, 29.09. 6:20 93% -
Do, 29.09. 6:10 93% -
Do, 29.09. 6:00 93% 30 km
Do, 29.09. 5:30 93% 26 km
Do, 29.09. 5:00 93% 29 km
Do, 29.09. 4:30 93% 35 km
Do, 29.09. 4:00 92% 30 km
Ortszeit Niederschlagsmenge Niederschlagsart
Do, 29.09. 2:00 0.1 l/m2 in 6 Std. Regen
Mi, 28.09. 20:00 0.4 l/m2 in 12 Std. Regen
Mi, 28.09. 14:00 0.1 l/m2 in 6 Std. Regen
Mi, 28.09. 8:00 9 l/m2 in 12 Std. Regen
Mi, 28.09. 2:00 0.1 l/m2 in 6 Std. Regen
Di, 27.09. 20:00 2 l/m2 in 12 Std. Regen
Di, 27.09. 14:00 2 l/m2 in 6 Std. Regen
Di, 27.09. 8:00 11 l/m2 in 12 Std. Regen
Ortszeit Niederschlagsmenge Niederschlagsart
Do, 29.09. 7:00 0.0 l/m2 in 1 Std. -
Do, 29.09. 6:50 keine Meldung -
Do, 29.09. 6:40 keine Meldung -
Do, 29.09. 6:30 0.0 l/m2 in 1 Std. -
Do, 29.09. 6:20 keine Meldung -
Do, 29.09. 6:10 keine Meldung -
Do, 29.09. 6:00 0.0 l/m2 in 1 Std. -
Do, 29.09. 5:30 0.0 l/m2 in 1 Std. -
Do, 29.09. 5:00 0.0 l/m2 in 1 Std. -
Do, 29.09. 4:30 0.0 l/m2 in 1 Std. -
Do, 29.09. 4:00 0.0 l/m2 in 1 Std. -
Ortszeit Stärke Spitze Richtung
km/h Bft. km/h Grad Sektor
Do, 29.09. 2:00 4 1 7 140° SO
Mi, 28.09. 20:00 4 1 32 140° SO
Mi, 28.09. 14:00 13 3 31 240° SW
Mi, 28.09. 8:00 14 3 36 250° W
Mi, 28.09. 2:00 7 2 32 180° S
Di, 27.09. 20:00 19 3 44 250° W
Di, 27.09. 14:00 18 3 50 270° W
Di, 27.09. 8:00 20 4 44 250° W
Ortszeit Stärke Spitze Richtung
km/h Bft. km/h Grad Sektor
Do, 29.09. 7:00 6 1 9 50° NO
Do, 29.09. 6:50 6 1 - 50° NO
Do, 29.09. 6:40 2 1 - 90° O
Do, 29.09. 6:30 4 1 7 10° N
Do, 29.09. 6:20 4 1 - 10° N
Do, 29.09. 6:10 4 1 - 360° N
Do, 29.09. 6:00 4 1 7 10° N
Do, 29.09. 5:30 4 1 7 30° NO
Do, 29.09. 5:00 4 1 7 80° O
Do, 29.09. 4:30 4 1 7 70° O
Do, 29.09. 4:00 4 1 7 60° NO
Ortszeit Untergrenze Bedeckung Gattung
total tief tief mittel hoch
Do, 29.09. 2:00 - 0/8 0/8 - - -
Mi, 28.09. 20:00 1230 m 8/8 1/8 - - -
Mi, 28.09. 14:00 870 m 7/8 7/8 - - -
Mi, 28.09. 8:00 450 m 8/8 8/8 - - -
Mi, 28.09. 2:00 1260 m 7/8 7/8 - - -
Di, 27.09. 20:00 780 m 8/8 6/8 - - -
Di, 27.09. 14:00 480 m 8/8 8/8 - - -
Di, 27.09. 8:00 480 m 8/8 8/8 - - -
Ortszeit Bedeckungsgrad in Achtel und Wolkenuntergrenze
Do, 29.09. 7:00 8(5700m) 8(6600m) 8(7200m)
Do, 29.09. 6:50 8(5700m) 8(6600m) 8(7200m)
Do, 29.09. 6:40 8
Do, 29.09. 6:30 4(2400m) 8(6600m) 8(7500m)
Do, 29.09. 6:20 4(2400m) 8(6600m) 8(7500m)
Do, 29.09. 6:10 7
Do, 29.09. 6:00 8(2400m) 8(6000m)
Do, 29.09. 5:30 5(450m) 8(2400m)
Do, 29.09. 5:00 8(2400m)
Do, 29.09. 4:30 7(2400m) 8(6300m)
Do, 29.09. 4:00 6(2700m) 7(6300m) 7(8700m)
Ortszeit Luftdruck NN (hPa) Tendenz (hPa in 3 Std.)
Do, 29.09. 2:00 1002 - 0,1
Mi, 28.09. 20:00 1001 + 1,0
Mi, 28.09. 14:00 999 + 0,8
Mi, 28.09. 8:00 997 + 0,2
Mi, 28.09. 2:00 1000 - 2,2
Di, 27.09. 20:00 1002 + 0,5
Di, 27.09. 14:00 1002 + 0,3
Di, 27.09. 8:00 1000 + 1,4
Ortszeit Luftdruck NN (hPa) Tendenz (hPa in 3 Std.)
Do, 29.09. 7:00 1002 - 0,3
Do, 29.09. 6:50 1002 keine Meldung
Do, 29.09. 6:40 1002 keine Meldung
Do, 29.09. 6:30 1002 0,0
Do, 29.09. 6:20 1002 keine Meldung
Do, 29.09. 6:10 1002 keine Meldung
Do, 29.09. 6:00 1002 0,0
Do, 29.09. 5:30 1002 0,0
Do, 29.09. 5:00 1003 + 0,2
Do, 29.09. 4:30 1002 - 0,1
Do, 29.09. 4:00 1002 - 0,1
Ortszeit Schneehöhe (cm)
Do, 29.09. 2:00 0
Mi, 28.09. 20:00 0
Mi, 28.09. 14:00 0
Mi, 28.09. 8:00 0
Mi, 28.09. 2:00 0
Di, 27.09. 20:00 0
Di, 27.09. 14:00 0
Di, 27.09. 8:00 0
Ortszeit Schneehöhe (cm)
Do, 29.09. 7:00 0
Do, 29.09. 6:50 0
Do, 29.09. 6:40 0
Do, 29.09. 6:30 0
Do, 29.09. 6:20 0
Do, 29.09. 6:10 0
Do, 29.09. 6:00 0
Do, 29.09. 5:30 0
Do, 29.09. 5:00 0
Do, 29.09. 4:30 0
Do, 29.09. 4:00 0
Link zu dieser Seite / Seite empfehlen

Das Wetter in ...